createdAt,value
2018-11-26T00:00:45.800Z,5.40
2018-11-26T00:03:14.070Z,5.40
2018-11-26T00:05:42.479Z,5.40
2018-11-26T00:08:12.397Z,5.40
2018-11-26T00:10:52.145Z,5.30
2018-11-26T00:13:20.420Z,5.30
2018-11-26T00:15:48.671Z,5.40
2018-11-26T00:18:16.930Z,5.30
2018-11-26T00:20:45.213Z,5.30
2018-11-26T00:23:13.450Z,5.40
2018-11-26T00:25:41.769Z,5.30
2018-11-26T00:28:10.130Z,5.30
2018-11-26T00:30:38.547Z,5.30
2018-11-26T00:33:06.794Z,5.30
2018-11-26T00:35:35.006Z,5.20
2018-11-26T00:38:03.212Z,5.30
2018-11-26T00:40:31.497Z,5.30
2018-11-26T00:42:59.775Z,5.30
2018-11-26T00:45:28.036Z,5.30
2018-11-26T00:47:56.301Z,5.30
2018-11-26T00:50:24.569Z,5.30
2018-11-26T00:52:52.820Z,5.30
2018-11-26T00:55:21.139Z,5.30
2018-11-26T00:57:49.437Z,5.30
2018-11-26T01:00:18.708Z,5.30
2018-11-26T01:02:47.026Z,5.30
2018-11-26T01:05:26.692Z,5.30
2018-11-26T01:07:54.976Z,5.30
2018-11-26T01:10:23.248Z,5.30
2018-11-26T01:12:51.488Z,5.30
2018-11-26T01:15:19.772Z,5.30
2018-11-26T01:17:48.008Z,5.30
2018-11-26T01:20:16.241Z,5.30
2018-11-26T01:22:44.513Z,5.30
2018-11-26T01:25:12.828Z,5.30
2018-11-26T01:27:41.147Z,5.30
2018-11-26T01:30:09.695Z,5.30
2018-11-26T01:32:37.914Z,5.30
2018-11-26T01:35:07.319Z,5.20
2018-11-26T01:37:35.579Z,5.30
2018-11-26T01:40:04.100Z,5.20
2018-11-26T01:42:32.308Z,5.20
2018-11-26T01:45:00.568Z,5.20
2018-11-26T01:47:28.788Z,5.20
2018-11-26T01:49:57.040Z,5.20
2018-11-26T01:52:25.329Z,5.20
2018-11-26T01:54:53.576Z,5.20
2018-11-26T01:57:21.837Z,5.20
2018-11-26T01:59:50.113Z,5.20
2018-11-26T02:02:18.415Z,5.10
2018-11-26T02:04:46.666Z,5.10
2018-11-26T02:07:14.884Z,5.20
2018-11-26T02:09:43.133Z,5.10
2018-11-26T02:12:11.345Z,5.10
2018-11-26T02:14:39.622Z,5.10
2018-11-26T02:17:07.859Z,5.10
2018-11-26T02:19:36.122Z,5.00
2018-11-26T02:22:04.385Z,5.10
2018-11-26T02:24:33.035Z,5.00
2018-11-26T02:27:01.268Z,5.00
2018-11-26T02:29:29.588Z,5.10
2018-11-26T02:31:57.824Z,5.10
2018-11-26T02:34:26.070Z,5.00
2018-11-26T02:36:54.325Z,5.00
2018-11-26T02:39:22.587Z,5.00
2018-11-26T02:41:50.813Z,5.10
2018-11-26T02:44:19.074Z,5.10
2018-11-26T02:46:47.336Z,5.10
2018-11-26T02:49:15.613Z,5.10
2018-11-26T02:51:43.832Z,5.10
2018-11-26T02:54:12.093Z,5.10
2018-11-26T02:56:40.340Z,5.10
2018-11-26T02:59:08.554Z,5.10
2018-11-26T03:01:36.850Z,5.10
2018-11-26T03:04:05.157Z,5.10
2018-11-26T03:06:33.393Z,5.10
2018-11-26T03:09:01.625Z,5.10
2018-11-26T03:11:29.880Z,5.00
2018-11-26T03:13:58.172Z,5.00
2018-11-26T03:16:26.400Z,5.00
2018-11-26T03:18:54.615Z,5.00
2018-11-26T03:21:22.999Z,5.00
2018-11-26T03:23:51.341Z,5.00
2018-11-26T03:26:19.572Z,5.00
2018-11-26T03:28:47.846Z,5.00
2018-11-26T03:31:16.099Z,5.00
2018-11-26T03:33:44.376Z,5.10
2018-11-26T03:36:12.677Z,5.10
2018-11-26T03:38:56.132Z,5.00
2018-11-26T03:41:24.635Z,5.00
2018-11-26T03:43:52.899Z,4.90
2018-11-26T03:46:21.310Z,4.90
2018-11-26T03:48:49.636Z,4.90
2018-11-26T03:51:17.881Z,4.90
2018-11-26T03:53:46.136Z,5.00
2018-11-26T03:56:14.424Z,4.90
2018-11-26T03:58:42.713Z,4.90
2018-11-26T04:01:10.946Z,4.90
2018-11-26T04:03:39.195Z,4.90
2018-11-26T04:06:07.421Z,5.00
2018-11-26T04:08:35.676Z,4.90
2018-11-26T04:11:04.085Z,4.90
2018-11-26T04:13:32.360Z,4.90
2018-11-26T04:16:00.631Z,4.90
2018-11-26T04:18:28.845Z,4.90
2018-11-26T04:20:57.088Z,5.00
2018-11-26T04:23:25.296Z,5.00
2018-11-26T04:25:53.596Z,4.90
2018-11-26T04:28:21.874Z,4.90
2018-11-26T04:30:50.144Z,4.90
2018-11-26T04:33:18.382Z,4.90
2018-11-26T04:35:46.620Z,4.90
2018-11-26T04:38:14.917Z,4.90
2018-11-26T04:40:43.229Z,4.90
2018-11-26T04:43:11.430Z,4.80
2018-11-26T04:45:39.640Z,4.90
2018-11-26T04:48:07.914Z,4.80
2018-11-26T04:50:36.219Z,4.80
2018-11-26T04:53:04.530Z,4.80
2018-11-26T04:55:32.794Z,4.80
2018-11-26T04:58:01.066Z,4.80
2018-11-26T05:00:29.301Z,4.80
2018-11-26T05:02:57.613Z,4.80
2018-11-26T05:05:25.847Z,4.80
2018-11-26T05:07:54.123Z,4.80
2018-11-26T05:10:22.441Z,4.80
2018-11-26T05:12:51.200Z,4.80
2018-11-26T05:15:19.425Z,4.70
2018-11-26T05:17:47.644Z,4.70
2018-11-26T05:20:15.967Z,4.70
2018-11-26T05:22:44.195Z,4.70
2018-11-26T05:25:13.636Z,4.70
2018-11-26T05:27:41.875Z,4.70
2018-11-26T05:30:12.159Z,4.70
2018-11-26T05:32:40.467Z,4.60
2018-11-26T05:35:09.888Z,4.60
2018-11-26T05:37:38.146Z,4.60
2018-11-26T05:40:09.565Z,4.60
2018-11-26T05:42:37.785Z,4.60
2018-11-26T05:45:08.278Z,4.50
2018-11-26T05:47:36.527Z,4.50
2018-11-26T05:50:06.698Z,4.50
2018-11-26T05:52:34.915Z,4.50
2018-11-26T05:55:03.199Z,4.50
2018-11-26T05:57:31.506Z,4.50
2018-11-26T05:59:59.772Z,4.50
2018-11-26T06:02:28.040Z,4.50
2018-11-26T06:04:56.228Z,4.50
2018-11-26T06:07:24.440Z,4.50
2018-11-26T06:09:52.704Z,4.40
2018-11-26T06:12:20.950Z,4.40
2018-11-26T06:14:49.188Z,4.40
2018-11-26T06:17:17.402Z,4.30
2018-11-26T06:19:45.746Z,4.30
2018-11-26T06:22:13.997Z,4.20
2018-11-26T06:24:42.290Z,4.30
2018-11-26T06:27:11.104Z,4.30
2018-11-26T06:29:39.332Z,4.30
2018-11-26T06:32:07.632Z,4.20
2018-11-26T06:34:36.255Z,4.20
2018-11-26T06:37:04.156Z,4.10
2018-11-26T06:39:32.479Z,4.10
2018-11-26T06:42:00.806Z,4.00
2018-11-26T06:44:29.031Z,4.10
2018-11-26T06:46:57.268Z,4.00
2018-11-26T06:49:25.525Z,4.00
2018-11-26T06:51:53.792Z,3.90
2018-11-26T06:54:22.940Z,3.90
2018-11-26T06:56:50.416Z,3.90
2018-11-26T06:59:18.638Z,3.90
2018-11-26T07:01:46.886Z,3.90
2018-11-26T07:04:15.257Z,3.80
2018-11-26T07:06:43.482Z,3.80
2018-11-26T07:09:11.746Z,3.80
2018-11-26T07:11:39.980Z,3.80
2018-11-26T07:14:08.217Z,3.80
2018-11-26T07:16:37.649Z,3.80
2018-11-26T07:19:04.996Z,3.80
2018-11-26T07:21:33.261Z,3.80
2018-11-26T07:24:01.510Z,3.80
2018-11-26T07:26:29.751Z,3.80
2018-11-26T07:28:58.036Z,3.80
2018-11-26T07:31:26.256Z,3.80
2018-11-26T07:33:54.481Z,3.70
2018-11-26T07:36:22.749Z,3.70
2018-11-26T07:38:50.978Z,3.70
2018-11-26T07:41:19.233Z,3.70
2018-11-26T07:43:47.470Z,3.80
2018-11-26T07:46:15.716Z,3.80
2018-11-26T07:48:43.960Z,3.80
2018-11-26T07:51:12.197Z,3.70
2018-11-26T07:53:40.436Z,3.80
2018-11-26T07:56:08.687Z,3.80
2018-11-26T07:58:36.917Z,3.90
2018-11-26T08:01:05.763Z,4.00
2018-11-26T08:03:33.993Z,4.00
2018-11-26T08:06:02.391Z,4.10
2018-11-26T08:08:30.532Z,4.10
2018-11-26T08:10:58.761Z,4.20
2018-11-26T08:13:27.000Z,4.20
2018-11-26T08:15:55.261Z,4.40
2018-11-26T08:18:23.580Z,4.40
2018-11-26T08:20:51.786Z,4.40
2018-11-26T08:23:20.049Z,4.20
2018-11-26T08:25:48.322Z,4.30
2018-11-26T08:28:16.568Z,4.40
2018-11-26T08:30:44.786Z,4.50
2018-11-26T08:33:13.050Z,4.70
2018-11-26T08:35:41.323Z,4.80
2018-11-26T08:38:18.737Z,5.00
2018-11-26T08:40:49.218Z,5.10
2018-11-26T08:43:19.472Z,4.80
2018-11-26T08:45:54.260Z,4.90
2018-11-26T08:48:28.119Z,4.80
2018-11-26T08:50:57.493Z,4.70
2018-11-26T08:53:25.781Z,5.00
2018-11-26T08:55:54.044Z,5.50
2018-11-26T08:58:22.350Z,5.70
2018-11-26T09:00:56.158Z,5.90
2018-11-26T09:03:28.635Z,6.40
2018-11-26T09:06:02.080Z,6.90
2018-11-26T09:08:32.486Z,7.50
2018-11-26T09:11:01.522Z,7.90
2018-11-26T09:13:29.904Z,8.00
2018-11-26T09:15:58.139Z,8.40
2018-11-26T09:18:26.395Z,8.40
2018-11-26T09:20:54.617Z,8.00
2018-11-26T09:23:22.841Z,7.90
2018-11-26T09:25:51.068Z,7.80
2018-11-26T09:28:19.319Z,7.60
2018-11-26T09:30:47.512Z,7.30
2018-11-26T09:33:15.739Z,7.20
2018-11-26T09:35:43.960Z,7.20
2018-11-26T09:38:13.137Z,7.30
2018-11-26T09:40:40.506Z,7.60
2018-11-26T09:43:08.752Z,7.70
2018-11-26T09:45:40.474Z,7.60
2018-11-26T09:48:05.451Z,7.40
2018-11-26T09:50:33.740Z,7.00
2018-11-26T09:53:01.987Z,6.70
2018-11-26T09:55:30.256Z,6.40
2018-11-26T09:57:58.643Z,6.20
2018-11-26T10:00:26.892Z,6.00
2018-11-26T10:02:55.154Z,5.90
2018-11-26T10:05:24.744Z,5.70
2018-11-26T10:07:53.014Z,5.50
2018-11-26T10:10:21.233Z,5.40
2018-11-26T10:12:49.437Z,5.40
2018-11-26T10:15:19.616Z,5.40
2018-11-26T10:17:48.096Z,5.50
2018-11-26T10:20:16.480Z,5.60
2018-11-26T10:22:45.456Z,5.80
2018-11-26T10:25:14.871Z,5.90
2018-11-26T10:27:43.155Z,6.00
2018-11-26T10:30:12.388Z,6.00
2018-11-26T10:32:40.943Z,5.90
2018-11-26T10:35:11.285Z,5.90
2018-11-26T10:37:39.560Z,6.00
2018-11-26T10:40:15.118Z,6.10
2018-11-26T10:42:43.336Z,6.10
2018-11-26T10:45:14.665Z,6.20
2018-11-26T10:47:42.892Z,6.20
2018-11-26T10:50:12.214Z,6.40
2018-11-26T10:52:41.620Z,6.60
2018-11-26T10:55:13.303Z,6.70
2018-11-26T10:57:41.602Z,7.00
2018-11-26T11:00:16.782Z,7.20
2018-11-26T11:02:45.158Z,7.40
2018-11-26T11:05:13.438Z,7.50
2018-11-26T11:07:41.688Z,7.60
2018-11-26T11:10:12.661Z,7.70
2018-11-26T11:12:40.881Z,7.60
2018-11-26T11:15:10.787Z,7.60
2018-11-26T11:17:39.128Z,7.70
2018-11-26T11:20:11.093Z,7.70
2018-11-26T11:22:39.355Z,7.70
2018-11-26T11:25:08.487Z,7.50
2018-11-26T11:27:36.895Z,7.30
2018-11-26T11:30:11.911Z,6.90
2018-11-26T11:32:40.201Z,6.80
2018-11-26T11:35:09.547Z,6.70
2018-11-26T11:37:37.826Z,6.70
2018-11-26T11:40:12.446Z,6.60
2018-11-26T11:42:40.706Z,6.50
2018-11-26T11:45:11.221Z,6.40
2018-11-26T11:47:39.505Z,6.30
2018-11-26T11:50:12.106Z,6.30
2018-11-26T11:52:40.391Z,6.30
2018-11-26T11:55:11.121Z,6.20
2018-11-26T11:57:39.422Z,6.20
2018-11-26T12:07:10.693Z,6.10
2018-11-26T12:09:38.864Z,6.10
2018-11-26T12:12:07.078Z,6.10
2018-11-26T12:14:35.314Z,6.10
2018-11-26T12:17:03.616Z,6.10
2018-11-26T12:19:31.863Z,6.10
2018-11-26T12:22:00.083Z,6.10
2018-11-26T12:24:28.321Z,6.20
2018-11-26T12:26:56.532Z,6.20
2018-11-26T12:29:24.764Z,6.20
2018-11-26T12:31:53.074Z,6.20
2018-11-26T12:34:21.326Z,6.20
2018-11-26T12:36:49.498Z,6.20
2018-11-26T12:39:17.757Z,6.20
2018-11-26T12:41:46.138Z,6.20
2018-11-26T12:44:16.793Z,6.20
2018-11-26T12:46:44.986Z,6.20
2018-11-26T12:49:13.201Z,6.10
2018-11-26T12:51:41.436Z,6.10
2018-11-26T12:54:09.666Z,6.10
2018-11-26T12:56:37.853Z,6.10
2018-11-26T12:59:06.232Z,6.10
2018-11-26T13:01:34.473Z,6.10
2018-11-26T13:04:02.806Z,6.10
2018-11-26T13:06:31.062Z,6.10
2018-11-26T13:08:59.295Z,6.00
2018-11-26T13:11:27.525Z,6.00
2018-11-26T13:13:55.767Z,6.00
2018-11-26T13:16:23.941Z,6.00
2018-11-26T13:18:52.385Z,6.00
2018-11-26T13:21:20.666Z,6.00
2018-11-26T13:23:49.454Z,6.00
2018-11-26T13:26:17.665Z,6.00
2018-11-26T13:28:45.969Z,6.00
2018-11-26T13:31:14.213Z,6.00
2018-11-26T13:33:42.440Z,6.00
2018-11-26T13:36:10.662Z,6.00
2018-11-26T13:38:38.937Z,5.90
2018-11-26T13:41:07.133Z,5.90
2018-11-26T13:43:35.342Z,5.90
2018-11-26T13:46:03.595Z,5.90
2018-11-26T13:48:31.865Z,5.90
2018-11-26T13:51:00.067Z,5.90
2018-11-26T13:53:28.315Z,5.90
2018-11-26T13:55:56.564Z,5.90
2018-11-26T13:58:24.942Z,5.90
2018-11-26T14:00:53.212Z,5.80
2018-11-26T14:03:21.453Z,5.80
2018-11-26T14:05:49.676Z,5.80
2018-11-26T14:08:17.982Z,5.80
2018-11-26T14:10:46.219Z,5.80
2018-11-26T14:13:16.295Z,5.80
2018-11-26T14:15:44.547Z,5.80
2018-11-26T14:18:12.814Z,5.70
2018-11-26T14:20:41.070Z,5.70
2018-11-26T14:23:09.750Z,5.70
2018-11-26T14:25:37.999Z,5.70
2018-11-26T14:28:06.359Z,5.70
2018-11-26T14:30:34.513Z,5.70
2018-11-26T14:33:02.735Z,5.70
2018-11-26T14:35:30.962Z,5.70
2018-11-26T14:38:00.974Z,5.70
2018-11-26T14:40:36.438Z,5.70
2018-11-26T14:43:04.687Z,5.60
2018-11-26T14:45:32.957Z,5.60
2018-11-26T14:48:01.188Z,5.60
2018-11-26T14:50:29.631Z,5.60
2018-11-26T14:52:57.911Z,5.60
2018-11-26T14:55:29.075Z,5.60
2018-11-26T14:57:57.371Z,5.50
2018-11-26T15:00:25.598Z,5.50
2018-11-26T15:02:53.814Z,5.50
2018-11-26T15:05:22.133Z,5.50
2018-11-26T15:07:50.374Z,5.50
2018-11-26T15:10:19.743Z,5.50
2018-11-26T15:12:48.129Z,5.50
2018-11-26T15:15:17.462Z,5.50
2018-11-26T15:17:49.248Z,5.50
2018-11-26T15:20:21.551Z,5.50
2018-11-26T15:22:50.283Z,5.50
2018-11-26T15:25:19.897Z,5.40
2018-11-26T15:27:48.705Z,5.50
2018-11-26T15:30:18.220Z,5.40
2018-11-26T15:32:46.630Z,5.40
2018-11-26T15:35:17.664Z,5.40
2018-11-26T15:37:45.915Z,5.40
2018-11-26T15:40:15.166Z,5.40
2018-11-26T15:42:43.460Z,5.40
2018-11-26T15:45:13.022Z,5.40
2018-11-26T15:47:41.285Z,5.40
2018-11-26T15:50:09.740Z,5.40
2018-11-26T15:52:38.044Z,5.40
2018-11-26T15:55:08.429Z,5.40
2018-11-26T15:57:36.699Z,5.40
2018-11-26T16:00:07.645Z,5.40
2018-11-26T16:02:35.910Z,5.40
2018-11-26T16:05:04.471Z,5.40
2018-11-26T16:07:32.762Z,5.40
2018-11-26T16:10:01.096Z,5.40
2018-11-26T16:12:29.335Z,5.40
2018-11-26T16:14:57.663Z,5.40
2018-11-26T16:17:25.918Z,5.40
2018-11-26T16:19:54.191Z,5.40
2018-11-26T16:22:22.409Z,5.40
2018-11-26T16:24:50.646Z,5.40
2018-11-26T16:27:18.930Z,5.40
2018-11-26T16:29:47.239Z,5.40
2018-11-26T16:32:15.464Z,5.40
2018-11-26T16:34:43.701Z,5.50
2018-11-26T16:37:11.921Z,5.50
2018-11-26T16:39:40.234Z,5.40
2018-11-26T16:42:08.441Z,5.40
2018-11-26T16:44:36.671Z,5.40
2018-11-26T16:47:05.242Z,5.40
2018-11-26T16:49:33.507Z,5.40
2018-11-26T16:52:01.824Z,5.40
2018-11-26T16:54:30.102Z,5.40
2018-11-26T16:56:58.369Z,5.40
2018-11-26T16:59:26.609Z,5.40
2018-11-26T17:01:54.883Z,5.40
2018-11-26T17:04:23.131Z,5.40
2018-11-26T17:06:51.407Z,5.40
2018-11-26T17:09:19.689Z,5.50
2018-11-26T17:11:47.940Z,5.40
2018-11-26T17:14:16.166Z,5.40
2018-11-26T17:16:44.379Z,5.40
2018-11-26T17:19:12.728Z,5.40
2018-11-26T17:21:40.970Z,5.40
2018-11-26T17:24:09.251Z,5.40
2018-11-26T17:26:37.485Z,5.40
2018-11-26T17:29:06.484Z,5.40
2018-11-26T17:31:34.716Z,5.40
2018-11-26T17:34:02.961Z,5.40
2018-11-26T17:36:32.002Z,5.40
2018-11-26T17:39:00.532Z,5.40
2018-11-26T17:41:29.026Z,5.40
2018-11-26T17:43:58.353Z,5.40
2018-11-26T17:46:26.840Z,5.40
2018-11-26T17:48:55.356Z,5.40
2018-11-26T17:51:23.628Z,5.40
2018-11-26T17:53:51.843Z,5.50
2018-11-26T17:56:20.095Z,5.40
2018-11-26T17:58:48.361Z,5.40
2018-11-26T18:01:48.482Z,5.40
2018-11-26T18:04:16.789Z,5.50
2018-11-26T18:06:47.457Z,5.40
2018-11-26T18:09:13.390Z,5.40
2018-11-26T18:11:41.665Z,5.40
2018-11-26T18:14:09.912Z,5.40
2018-11-26T18:16:38.756Z,5.40
2018-11-26T18:19:07.062Z,5.40
2018-11-26T18:21:35.357Z,5.40
2018-11-26T18:24:03.594Z,5.40
2018-11-26T18:26:31.802Z,5.40
2018-11-26T18:29:00.013Z,5.40
2018-11-26T18:31:28.269Z,5.40
2018-11-26T18:33:56.547Z,5.30
2018-11-26T18:36:24.785Z,5.30
2018-11-26T18:38:53.011Z,5.40
2018-11-26T18:41:21.238Z,5.30
2018-11-26T18:43:49.445Z,5.30
2018-11-26T18:46:17.745Z,5.30
2018-11-26T18:48:45.948Z,5.30
2018-11-26T18:51:14.226Z,5.40
2018-11-26T18:53:42.458Z,5.40
2018-11-26T18:56:10.793Z,5.40
2018-11-26T18:58:39.003Z,5.40
2018-11-26T19:01:07.804Z,5.40
2018-11-26T19:03:36.030Z,5.40
2018-11-26T19:06:04.328Z,5.40
2018-11-26T19:08:32.592Z,5.30
2018-11-26T19:11:04.021Z,5.30
2018-11-26T19:14:39.370Z,5.30
2018-11-26T19:17:07.609Z,5.30
2018-11-26T19:19:35.806Z,5.30
2018-11-26T19:22:04.882Z,5.30
2018-11-26T19:24:33.193Z,5.30
2018-11-26T19:27:02.300Z,5.30
2018-11-26T19:29:31.183Z,5.30
2018-11-26T19:32:00.307Z,5.30
2018-11-26T19:34:29.333Z,5.40
2018-11-26T19:36:57.579Z,5.30
2018-11-26T19:39:26.221Z,5.40
2018-11-26T19:41:54.565Z,5.30
2018-11-26T19:44:22.842Z,5.30
2018-11-26T19:46:51.095Z,5.30
2018-11-26T19:49:19.369Z,5.30
2018-11-26T19:51:47.647Z,5.30
2018-11-26T19:54:15.856Z,5.30
2018-11-26T19:56:44.207Z,5.40
2018-11-26T19:59:12.545Z,5.40
2018-11-26T20:01:40.817Z,5.30
2018-11-26T20:04:17.034Z,5.30
2018-11-26T20:06:45.348Z,5.30
2018-11-26T20:09:13.637Z,5.30
2018-11-26T20:11:41.833Z,5.30
2018-11-26T20:14:10.076Z,5.40
2018-11-26T20:16:41.302Z,5.40
2018-11-26T20:19:09.571Z,5.40
2018-11-26T20:21:37.788Z,5.30
2018-11-26T20:24:06.014Z,5.40
2018-11-26T20:26:34.265Z,5.30
2018-11-26T20:29:02.470Z,5.30
2018-11-26T20:31:30.802Z,5.30
2018-11-26T20:33:59.053Z,5.30
2018-11-26T20:36:27.289Z,5.30
2018-11-26T20:38:55.547Z,5.40
2018-11-26T20:41:23.745Z,5.40
2018-11-26T20:43:51.973Z,5.40
2018-11-26T20:46:20.187Z,5.40
2018-11-26T20:48:48.438Z,5.40
2018-11-26T20:51:16.650Z,5.30
2018-11-26T20:53:44.995Z,5.40
2018-11-26T20:56:15.074Z,5.40
2018-11-26T20:58:43.809Z,5.40
2018-11-26T21:01:12.205Z,5.30
2018-11-26T21:03:40.459Z,5.30
2018-11-26T21:06:08.696Z,5.30
2018-11-26T21:08:36.937Z,5.30
2018-11-26T21:11:05.181Z,5.30
2018-11-26T21:13:33.604Z,5.30
2018-11-26T21:16:01.865Z,5.30
2018-11-26T21:18:30.101Z,5.30
2018-11-26T21:20:58.392Z,5.40
2018-11-26T21:23:29.733Z,5.30
2018-11-26T21:25:59.462Z,5.30
2018-11-26T21:28:27.735Z,5.30
2018-11-26T21:30:55.967Z,5.30
2018-11-26T21:33:24.225Z,5.30
2018-11-26T21:35:54.517Z,5.30
2018-11-26T21:38:22.759Z,5.30
2018-11-26T21:40:51.013Z,5.30
2018-11-26T21:43:19.205Z,5.30
2018-11-26T21:45:51.065Z,5.20
2018-11-26T21:48:19.265Z,5.20
2018-11-26T21:50:47.483Z,5.20
2018-11-26T21:53:15.653Z,5.20
2018-11-26T21:55:43.878Z,5.20
2018-11-26T21:58:12.140Z,5.20
2018-11-26T22:00:41.044Z,5.10
2018-11-26T22:03:11.585Z,5.10
2018-11-26T22:05:40.817Z,5.10
2018-11-26T22:08:09.747Z,5.10
2018-11-26T22:10:39.213Z,5.10
2018-11-26T22:13:08.617Z,5.10
2018-11-26T22:15:36.846Z,5.10
2018-11-26T22:18:06.234Z,5.10
2018-11-26T22:20:34.429Z,5.10
2018-11-26T22:23:02.685Z,5.10
2018-11-26T22:25:30.921Z,5.10
2018-11-26T22:27:59.199Z,5.10
2018-11-26T22:30:29.674Z,5.00
2018-11-26T22:32:58.457Z,5.00
2018-11-26T22:35:26.694Z,5.00
2018-11-26T22:37:54.918Z,5.00
2018-11-26T22:40:24.526Z,5.00
2018-11-26T22:42:52.867Z,5.00
2018-11-26T22:45:26.650Z,4.90
2018-11-26T22:47:55.972Z,4.90
2018-11-26T22:50:24.238Z,4.90
2018-11-26T22:52:52.544Z,4.90
2018-11-26T22:55:20.765Z,4.90
2018-11-26T22:57:49.025Z,4.80
2018-11-26T23:00:23.931Z,4.80
2018-11-26T23:02:54.473Z,4.80
2018-11-26T23:05:22.701Z,4.70
2018-11-26T23:07:50.924Z,4.60
2018-11-26T23:10:19.145Z,4.60
2018-11-26T23:12:47.469Z,4.60
2018-11-26T23:15:16.069Z,4.60
2018-11-26T23:17:44.987Z,4.50
2018-11-26T23:20:14.277Z,4.50
2018-11-26T23:22:42.491Z,4.40
2018-11-26T23:25:11.998Z,4.40
2018-11-26T23:27:40.187Z,4.40
2018-11-26T23:30:13.862Z,4.40
2018-11-26T23:32:42.157Z,4.30
2018-11-26T23:35:10.370Z,4.30
2018-11-26T23:37:38.574Z,4.30
2018-11-26T23:40:10.201Z,4.30
2018-11-26T23:42:38.406Z,4.30
2018-11-26T23:45:12.673Z,4.20
2018-11-26T23:47:40.885Z,4.20
2018-11-26T23:50:10.238Z,4.20
2018-11-26T23:52:39.131Z,4.20
2018-11-26T23:55:15.087Z,4.10
2018-11-26T23:57:43.381Z,4.10
